Time;durP1;ratioP1;P1;durP2;ratioP2;P2;SDS_P1;SDS_P2;PMS_P1;PMS_P2;Temp;Humidity;BMP_temperature;BMP_pressure;BME280_temperature;BME280_humidity;BME280_pressure;Samples;Min_cycle;Max_cycle;Signal;HPM_P1;HPM_P2
2022/06/05 00:01:22;;;;;;;6.90;6.40;;;20.50;99.90;;;;;;5094886;28;20950;-74
2022/06/05 00:03:48;;;;;;;8.20;7.47;;;20.60;99.90;;;;;;5093492;28;20636;-74
2022/06/05 00:06:31;;;;;;;9.30;6.90;;;20.40;99.90;;;;;;5094906;28;20668;-75
2022/06/05 00:09:07;;;;;;;6.87;6.30;;;20.10;99.90;;;;;;5094687;28;20577;-74
2022/06/05 00:11:50;;;;;;;7.63;7.10;;;20.00;99.90;;;;;;5093138;28;20632;-74
2022/06/05 00:14:17;;;;;;;8.80;8.03;;;20.00;99.90;;;;;;5095187;28;20608;-74
2022/06/05 00:16:44;;;;;;;7.10;6.63;;;20.10;99.90;;;;;;5094867;28;20598;-75
2022/06/05 00:19:10;;;;;;;8.83;8.03;;;20.20;99.90;;;;;;5095100;28;21039;-75
2022/06/05 00:21:37;;;;;;;8.33;7.47;;;20.10;99.90;;;;;;5094882;28;21230;-74
2022/06/05 00:24:04;;;;;;;9.47;7.67;;;20.00;99.90;;;;;;5093842;28;20975;-74
2022/06/05 00:26:39;;;;;;;8.60;7.90;;;19.90;99.90;;;;;;5093433;28;20613;-74
2022/06/05 00:29:12;;;;;;;8.03;7.53;;;19.90;99.90;;;;;;5093822;28;20636;-75
2022/06/05 00:31:49;;;;;;;8.30;7.60;;;19.90;99.90;;;;;;5093780;28;20998;-74
2022/06/05 00:34:16;;;;;;;8.77;7.33;;;19.90;99.90;;;;;;5093594;28;20650;-74
2022/06/05 00:37:01;;;;;;;7.73;7.13;;;19.90;99.90;;;;;;5093584;28;20615;-74
2022/06/05 00:39:37;;;;;;;7.93;7.43;;;19.90;99.90;;;;;;5095357;28;20679;-74
2022/06/05 00:42:08;;;;;;;8.77;8.07;;;19.90;99.90;;;;;;5093774;28;20561;-74
2022/06/05 00:44:42;;;;;;;7.83;7.33;;;19.70;99.90;;;;;;5094682;28;21011;-74
2022/06/05 00:47:13;;;;;;;8.87;8.10;;;19.60;99.90;;;;;;5094324;28;20657;-75
2022/06/05 00:49:59;;;;;;;8.90;8.00;;;19.50;99.90;;;;;;5094920;28;20578;-74
2022/06/05 00:52:29;;;;;;;9.53;8.60;;;19.60;99.90;;;;;;5094416;28;20994;-74
2022/06/05 00:54:55;;;;;;;9.33;8.53;;;19.50;99.90;;;;;;5094645;28;20584;-75
2022/06/05 00:57:26;;;;;;;8.80;8.07;;;19.50;99.90;;;;;;5094620;28;20613;-75
2022/06/05 00:59:54;;;;;;;8.80;8.00;;;19.50;99.90;;;;;;5094911;28;20953;-75
2022/06/05 01:02:20;;;;;;;10.23;8.10;;;19.50;99.90;;;;;;5094266;28;20632;-71
2022/06/05 01:04:49;;;;;;;9.20;8.37;;;19.50;99.90;;;;;;5095192;28;21185;-71
2022/06/05 01:07:19;;;;;;;10.80;9.83;;;19.50;99.90;;;;;;5095085;28;20604;-72
2022/06/05 01:09:48;;;;;;;10.83;9.93;;;19.60;99.90;;;;;;5095366;28;20974;-71
2022/06/05 01:12:47;;;;;;;12.03;10.80;;;19.70;99.90;;;;;;5094291;28;20974;-71
2022/06/05 01:15:24;;;;;;;10.63;9.83;;;19.70;99.90;;;;;;5094059;28;21211;-71
2022/06/05 01:18:17;;;;;;;12.13;10.93;;;19.70;99.90;;;;;;5094297;28;20581;-71
2022/06/05 01:21:12;;;;;;;10.80;9.90;;;19.70;99.90;;;;;;5094750;28;20661;-71
2022/06/05 01:23:57;;;;;;;11.77;10.67;;;19.70;99.90;;;;;;5056932;28;20626;-72
2022/06/05 01:26:42;;;;;;;13.10;11.70;;;19.70;99.90;;;;;;5093906;28;20729;-71
2022/06/05 01:29:18;;;;;;;11.27;10.27;;;19.80;99.90;;;;;;5094107;28;20617;-71
2022/06/05 01:32:02;;;;;;;11.30;10.30;;;19.80;99.90;;;;;;5093957;28;20635;-71
2022/06/05 01:34:44;;;;;;;11.00;10.10;;;19.70;99.90;;;;;;5093376;28;20570;-70
2022/06/05 01:37:29;;;;;;;12.57;10.83;;;19.60;99.90;;;;;;5093928;28;20585;-72
2022/06/05 01:40:15;;;;;;;9.63;8.93;;;19.60;99.90;;;;;;5095241;28;20633;-71
2022/06/05 01:42:48;;;;;;;9.60;8.80;;;19.50;99.90;;;;;;5097073;28;20920;-71
2022/06/05 01:45:23;;;;;;;10.90;9.90;;;19.50;99.90;;;;;;5097520;28;20949;-71
2022/06/05 01:47:53;;;;;;;12.20;10.83;;;19.50;99.90;;;;;;5097339;28;20667;-71
2022/06/05 01:50:28;;;;;;;11.00;10.00;;;19.50;99.90;;;;;;5097368;28;20552;-71
2022/06/05 01:53:31;;;;;;;11.77;10.87;;;19.40;99.90;;;;;;5096288;28;21175;-72
2022/06/05 01:56:02;;;;;;;12.53;11.37;;;19.20;99.90;;;;;;5096689;28;20569;-72
2022/06/05 01:58:39;;;;;;;13.00;11.67;;;19.00;99.90;;;;;;5096513;28;20631;-72
2022/06/05 02:01:30;;;;;;;13.00;11.60;;;18.90;99.90;;;;;;5096850;28;20585;-72
2022/06/05 02:04:08;;;;;;;11.87;10.57;;;18.80;99.90;;;;;;5095704;28;20616;-71
2022/06/05 02:06:39;;;;;;;12.63;11.43;;;18.70;99.90;;;;;;5096936;28;20566;-72
2022/06/05 02:09:20;;;;;;;12.20;11.20;;;18.70;99.90;;;;;;5096814;28;20648;-72
2022/06/05 02:11:47;;;;;;;13.13;12.03;;;18.60;99.90;;;;;;5097102;28;20573;-72
2022/06/05 02:14:14;;;;;;;13.10;12.00;;;18.70;99.90;;;;;;5097127;28;20692;-71
2022/06/05 02:16:42;;;;;;;13.10;12.10;;;18.60;99.90;;;;;;5097196;28;21000;-71
2022/06/05 02:19:21;;;;;;;14.17;12.70;;;18.70;99.90;;;;;;5096715;28;20686;-71
2022/06/05 02:21:49;;;;;;;12.60;11.50;;;18.70;99.90;;;;;;5097056;28;20573;-71
2022/06/05 02:24:16;;;;;;;13.57;12.43;;;18.70;99.90;;;;;;5095858;28;20609;-71
2022/06/05 02:26:42;;;;;;;12.63;11.43;;;18.70;99.90;;;;;;5096995;28;21225;-70
2022/06/05 02:29:21;;;;;;;17.53;11.77;;;18.60;99.90;;;;;;5097320;28;20653;-71
2022/06/05 02:32:01;;;;;;;18.43;14.20;;;18.70;99.90;;;;;;5096817;28;20580;-71
2022/06/05 02:34:49;;;;;;;15.80;14.40;;;18.70;99.90;;;;;;5096715;28;20581;-70
2022/06/05 02:37:29;;;;;;;14.87;13.40;;;18.60;99.90;;;;;;5096656;28;20570;-71
2022/06/05 02:40:17;;;;;;;13.90;12.70;;;18.60;99.90;;;;;;5096613;28;21111;-71
2022/06/05 02:43:06;;;;;;;13.60;12.60;;;18.60;99.90;;;;;;5095961;28;20586;-71
2022/06/05 02:45:59;;;;;;;14.17;13.03;;;18.60;99.90;;;;;;5096729;28;20585;-71
2022/06/05 02:48:52;;;;;;;13.37;12.37;;;18.60;99.90;;;;;;5095251;28;21005;-71
2022/06/05 02:51:23;;;;;;;14.53;13.13;;;18.60;99.90;;;;;;5097265;28;21207;-71
2022/06/05 02:53:59;;;;;;;12.87;11.87;;;18.60;99.90;;;;;;5096976;28;21100;-71
2022/06/05 02:56:29;;;;;;;13.20;12.20;;;18.70;99.90;;;;;;5095969;28;20666;-71
2022/06/05 02:58:58;;;;;;;13.83;12.00;;;18.60;99.90;;;;;;5097407;28;20625;-71
2022/06/05 03:04:10;;;;;;;13.20;11.80;;;18.70;99.90;;;;;;5097043;28;20578;-71
2022/06/05 03:06:39;;;;;;;12.77;11.67;;;18.70;99.90;;;;;;5096005;28;20612;-71
2022/06/05 03:09:07;;;;;;;13.03;12.00;;;18.80;99.90;;;;;;5096401;28;20660;-71
2022/06/05 03:11:33;;;;;;;13.90;12.60;;;18.80;99.90;;;;;;5095997;28;20614;-71
2022/06/05 03:14:00;;;;;;;12.40;11.10;;;18.90;99.90;;;;;;5094138;28;20609;-71
2022/06/05 03:16:28;;;;;;;13.80;12.60;;;18.90;99.90;;;;;;5094582;28;20625;-71
2022/06/05 03:18:55;;;;;;;13.63;12.60;;;18.90;99.90;;;;;;5096691;28;20621;-71
2022/06/05 03:21:21;;;;;;;16.00;14.60;;;18.70;99.90;;;;;;5096781;28;20644;-71
2022/06/05 03:23:48;;;;;;;15.20;13.80;;;18.40;99.90;;;;;;5094341;28;20620;-71
2022/06/05 03:26:15;;;;;;;15.83;14.30;;;18.30;99.90;;;;;;5095672;28;20621;-71
2022/06/05 03:28:41;;;;;;;19.00;16.40;;;18.30;99.90;;;;;;5093889;28;20676;-71
2022/06/05 03:31:09;;;;;;;17.30;15.90;;;18.20;99.90;;;;;;5095046;28;20601;-71
2022/06/05 03:33:38;;;;;;;18.00;16.60;;;18.20;99.90;;;;;;5095196;28;20601;-72
2022/06/05 03:36:10;;;;;;;18.60;16.80;;;18.20;99.90;;;;;;5093764;28;20617;-70
2022/06/05 03:38:38;;;;;;;20.67;18.70;;;18.20;99.90;;;;;;5095022;28;20618;-71
2022/06/05 03:41:05;;;;;;;19.87;18.00;;;18.20;99.90;;;;;;5095403;28;20639;-71
2022/06/05 03:43:32;;;;;;;21.00;19.00;;;18.20;99.90;;;;;;5095240;28;21179;-71
2022/06/05 03:46:03;;;;;;;20.50;18.67;;;18.20;99.90;;;;;;5094776;28;20621;-71
2022/06/05 03:48:30;;;;;;;19.30;17.50;;;18.20;99.90;;;;;;5094424;28;20672;-71
2022/06/05 03:50:56;;;;;;;18.63;17.13;;;18.20;99.90;;;;;;5095239;28;20597;-71
2022/06/05 03:53:23;;;;;;;22.90;20.70;;;18.30;99.90;;;;;;5093536;28;20610;-71
2022/06/05 03:55:49;;;;;;;22.60;20.40;;;18.20;99.90;;;;;;5095099;28;20606;-72
2022/06/05 03:58:16;;;;;;;21.93;19.67;;;18.30;99.90;;;;;;5094893;28;20645;-72
2022/06/05 04:00:43;;;;;;;20.57;18.67;;;18.20;99.90;;;;;;5094964;28;21000;-72
2022/06/05 04:03:09;;;;;;;24.00;21.77;;;18.20;99.90;;;;;;5092790;28;20591;-70
2022/06/05 04:05:36;;;;;;;20.97;19.07;;;18.20;99.90;;;;;;5094468;28;20609;-71
2022/06/05 04:08:02;;;;;;;19.40;17.60;;;18.20;99.90;;;;;;5094630;28;20674;-72
2022/06/05 04:10:29;;;;;;;20.77;18.97;;;18.20;99.90;;;;;;5094532;28;21016;-71
2022/06/05 04:12:55;;;;;;;20.97;18.77;;;18.20;99.90;;;;;;5094460;28;20606;-71
2022/06/05 04:15:22;;;;;;;22.03;19.83;;;18.20;99.90;;;;;;5094635;28;20614;-71
2022/06/05 04:17:48;;;;;;;20.57;18.57;;;18.10;99.90;;;;;;5094727;28;20624;-72
2022/06/05 04:20:15;;;;;;;20.47;18.77;;;18.10;99.90;;;;;;5092820;28;20629;-72
2022/06/05 04:22:41;;;;;;;21.43;18.93;;;18.00;99.90;;;;;;5095029;28;21184;-71
2022/06/05 04:25:11;;;;;;;21.77;19.50;;;18.10;99.90;;;;;;5094682;28;20980;-71
2022/06/05 04:27:37;;;;;;;20.70;19.00;;;18.10;99.90;;;;;;5094939;28;21182;-70
2022/06/05 04:30:04;;;;;;;22.07;20.17;;;18.10;99.90;;;;;;5094998;28;20649;-71
2022/06/05 04:32:31;;;;;;;22.27;20.00;;;18.10;99.90;;;;;;5095056;28;20596;-71
2022/06/05 04:34:57;;;;;;;22.00;20.13;;;18.10;99.90;;;;;;5095124;28;20612;-72
2022/06/05 04:37:23;;;;;;;23.27;20.23;;;18.20;99.90;;;;;;5094773;28;20608;-72
2022/06/05 04:39:50;;;;;;;22.30;20.30;;;18.10;99.90;;;;;;5093867;28;20609;-71
2022/06/05 04:42:16;;;;;;;21.90;19.80;;;18.20;99.90;;;;;;5094001;28;20620;-72
2022/06/05 04:44:42;;;;;;;20.50;18.50;;;18.20;99.90;;;;;;5094439;28;20635;-72
2022/06/05 04:47:08;;;;;;;21.23;19.03;;;18.20;99.90;;;;;;5094235;28;20645;-72
2022/06/05 04:49:35;;;;;;;22.07;20.07;;;18.10;99.90;;;;;;5093785;28;21240;-73
2022/06/05 04:52:02;;;;;;;21.00;19.20;;;18.20;99.90;;;;;;5093799;28;20606;-73
2022/06/05 04:54:29;;;;;;;21.20;19.17;;;18.00;99.90;;;;;;5094138;28;20636;-72
2022/06/05 04:56:55;;;;;;;33.33;29.97;;;18.00;99.90;;;;;;5093750;28;20597;-72
2022/06/05 04:59:21;;;;;;;23.10;20.93;;;18.00;99.90;;;;;;5093515;28;20612;-72
2022/06/05 05:01:48;;;;;;;20.27;18.43;;;18.10;99.90;;;;;;5093246;28;20716;-72
2022/06/05 05:04:14;;;;;;;22.90;20.90;;;18.10;99.90;;;;;;5091775;28;20609;-72
2022/06/05 05:06:43;;;;;;;23.67;21.37;;;18.20;99.90;;;;;;5092877;28;20605;-72
2022/06/05 05:09:09;;;;;;;23.23;21.33;;;18.20;99.90;;;;;;5092903;28;20657;-72
2022/06/05 05:11:36;;;;;;;23.67;21.70;;;18.20;99.90;;;;;;5093050;28;20620;-72
2022/06/05 05:14:03;;;;;;;26.20;20.27;;;18.30;99.90;;;;;;5093294;28;20622;-72
2022/06/05 05:16:30;;;;;;;22.83;20.60;;;18.30;99.90;;;;;;5096585;28;20597;-72
2022/06/05 05:18:56;;;;;;;22.90;20.57;;;18.30;99.90;;;;;;5096079;28;20612;-72
2022/06/05 05:21:26;;;;;;;23.43;21.30;;;18.40;99.90;;;;;;5095965;28;20634;-72
2022/06/05 05:23:53;;;;;;;22.30;20.10;;;18.30;99.90;;;;;;5096619;28;20655;-72
2022/06/05 05:26:29;;;;;;;24.90;22.80;;;18.40;99.90;;;;;;5096841;28;20612;-72
2022/06/05 05:28:57;;;;;;;34.90;31.90;;;18.50;99.90;;;;;;5095839;28;20656;-73
2022/06/05 05:31:30;;;;;;;26.90;24.30;;;18.50;99.90;;;;;;5096150;28;21014;-73
2022/06/05 05:33:56;;;;;;;20.70;18.90;;;18.50;99.90;;;;;;5095620;28;20586;-73
2022/06/05 05:36:24;;;;;;;20.77;19.07;;;18.50;99.90;;;;;;5097780;28;20612;-73
2022/06/05 05:44:23;;;;;;;20.20;18.43;;;18.70;99.90;;;;;;5096295;28;20596;-73
2022/06/05 05:46:49;;;;;;;21.50;19.30;;;18.70;99.90;;;;;;5056987;28;1096206;-72
2022/06/05 05:49:16;;;;;;;21.83;19.73;;;18.70;99.90;;;;;;5097116;28;20633;-72
2022/06/05 05:51:43;;;;;;;21.20;19.30;;;18.70;99.90;;;;;;5098135;28;20605;-72
2022/06/05 05:54:10;;;;;;;22.47;20.47;;;18.50;99.90;;;;;;5097668;28;20601;-72
2022/06/05 05:56:38;;;;;;;21.67;19.87;;;18.50;99.90;;;;;;5097015;28;20628;-71
2022/06/05 05:59:05;;;;;;;20.53;18.80;;;18.60;99.90;;;;;;5096980;28;20614;-72
2022/06/05 06:01:32;;;;;;;21.77;19.67;;;18.70;99.90;;;;;;5096692;28;20621;-72
2022/06/05 06:03:58;;;;;;;21.93;19.90;;;18.70;99.90;;;;;;5096052;28;20609;-72
2022/06/05 06:06:35;;;;;;;22.07;20.27;;;18.70;99.90;;;;;;5096797;28;20609;-72
2022/06/05 06:09:04;;;;;;;21.93;20.00;;;18.90;99.90;;;;;;5097184;28;20632;-71
2022/06/05 06:11:31;;;;;;;21.80;19.90;;;19.00;99.90;;;;;;5095884;28;20621;-71
2022/06/05 06:13:57;;;;;;;22.00;20.00;;;18.90;99.90;;;;;;5096301;28;20957;-71
2022/06/05 06:16:26;;;;;;;20.37;18.60;;;19.00;99.90;;;;;;5096707;28;20683;-75
2022/06/05 06:18:57;;;;;;;20.17;18.47;;;19.10;99.90;;;;;;5098887;28;20615;-75
2022/06/05 06:21:24;;;;;;;21.57;19.63;;;19.20;99.90;;;;;;5098083;28;20617;-75
2022/06/05 06:23:51;;;;;;;19.77;18.00;;;19.20;99.90;;;;;;5097514;28;20609;-76
2022/06/05 06:26:20;;;;;;;19.20;17.57;;;19.30;99.90;;;;;;5098052;28;20700;-76
2022/06/05 06:28:46;;;;;;;19.47;17.77;;;19.40;99.90;;;;;;5096975;28;20617;-75
2022/06/05 06:31:16;;;;;;;18.60;17.00;;;19.60;99.90;;;;;;5096664;28;20621;-76
2022/06/05 06:33:45;;;;;;;18.10;16.20;;;19.70;99.90;;;;;;5096595;28;20959;-76
2022/06/05 06:36:14;;;;;;;15.53;14.23;;;19.90;99.90;;;;;;5096665;28;20601;-76
2022/06/05 06:38:41;;;;;;;18.60;17.00;;;19.80;99.90;;;;;;5097613;28;20609;-76
2022/06/05 06:41:11;;;;;;;22.23;15.83;;;19.60;99.90;;;;;;5095899;28;21216;-76
2022/06/05 06:43:39;;;;;;;17.67;16.27;;;19.50;99.90;;;;;;5095944;28;21091;-75
2022/06/05 06:46:05;;;;;;;18.00;16.60;;;19.60;99.90;;;;;;5095947;28;20663;-75
2022/06/05 06:48:32;;;;;;;18.40;16.90;;;19.50;99.90;;;;;;5096607;28;20648;-74
2022/06/05 06:51:00;;;;;;;19.67;17.93;;;19.40;99.90;;;;;;5095452;28;20664;-75
2022/06/05 06:53:28;;;;;;;19.27;17.60;;;19.30;99.90;;;;;;5096186;28;20616;-76
2022/06/05 06:55:55;;;;;;;17.53;15.87;;;19.40;99.90;;;;;;5096107;28;20626;-75
2022/06/05 06:58:21;;;;;;;18.10;16.30;;;19.50;99.90;;;;;;5097835;28;20606;-75
2022/06/05 07:00:48;;;;;;;17.93;16.43;;;19.60;99.90;;;;;;5097551;28;20620;-74
2022/06/05 07:03:14;;;;;;;17.63;16.13;;;19.70;99.90;;;;;;5097760;28;20601;-75
2022/06/05 07:05:41;;;;;;;18.23;16.57;;;19.70;99.90;;;;;;5096287;28;20613;-75
2022/06/05 07:08:09;;;;;;;16.57;15.27;;;19.70;99.90;;;;;;5096586;28;20582;-75
2022/06/05 07:10:37;;;;;;;16.83;15.50;;;19.60;99.90;;;;;;5095517;28;20660;-74
2022/06/05 07:13:04;;;;;;;17.40;16.00;;;19.50;99.90;;;;;;5097416;28;21156;-75
2022/06/05 07:15:34;;;;;;;17.60;16.13;;;19.50;99.90;;;;;;5096705;28;20678;-75
2022/06/05 07:18:05;;;;;;;18.27;16.63;;;19.50;99.90;;;;;;5097328;28;20601;-75
2022/06/05 07:20:34;;;;;;;17.13;15.73;;;19.50;99.90;;;;;;5097218;28;20573;-75
2022/06/05 07:23:01;;;;;;;17.67;16.00;;;19.50;99.90;;;;;;5097180;28;21086;-75
2022/06/05 07:25:29;;;;;;;16.40;14.90;;;19.50;99.90;;;;;;5095607;28;21005;-75
2022/06/05 07:27:56;;;;;;;16.47;15.07;;;19.60;99.90;;;;;;5096514;28;20700;-75
2022/06/05 07:30:23;;;;;;;15.63;14.43;;;19.70;99.90;;;;;;5096568;28;21023;-75
2022/06/05 07:32:50;;;;;;;16.67;15.03;;;19.80;99.90;;;;;;5096985;28;20620;-75
2022/06/05 07:35:17;;;;;;;18.13;16.63;;;19.80;99.90;;;;;;5096524;28;20617;-75
2022/06/05 07:37:44;;;;;;;17.10;15.40;;;19.70;99.90;;;;;;5093820;28;20662;-75
2022/06/05 07:40:12;;;;;;;17.30;15.90;;;19.80;99.90;;;;;;5095528;28;20598;-75
2022/06/05 07:42:39;;;;;;;15.53;14.23;;;19.90;99.90;;;;;;5096138;28;20626;-75
2022/06/05 07:45:07;;;;;;;22.07;14.93;;;19.80;99.90;;;;;;5096698;28;20605;-75
2022/06/05 07:47:33;;;;;;;15.10;13.80;;;20.00;99.90;;;;;;5096029;28;20669;-75
2022/06/05 07:50:00;;;;;;;14.63;13.50;;;20.10;99.90;;;;;;5092880;28;20684;-75
2022/06/05 07:55:12;;;;;;;13.60;12.60;;;20.10;99.90;;;;;;5095964;28;20578;-76
2022/06/05 07:57:39;;;;;;;14.33;13.03;;;20.10;99.90;;;;;;5095698;28;20620;-76
2022/06/05 08:00:07;;;;;;;13.40;12.40;;;20.40;99.90;;;;;;5095119;28;20630;-75
2022/06/05 08:02:35;;;;;;;14.63;13.40;;;20.70;99.90;;;;;;5093988;28;20620;-76
2022/06/05 08:05:02;;;;;;;14.00;12.90;;;20.90;99.90;;;;;;5096418;28;20612;-75
2022/06/05 08:07:30;;;;;;;14.13;12.73;;;21.10;99.90;;;;;;5096021;28;20678;-75
2022/06/05 08:09:57;;;;;;;12.50;11.40;;;21.10;99.90;;;;;;5095958;28;20657;-76
2022/06/05 08:12:29;;;;;;;13.23;12.23;;;21.20;99.90;;;;;;5096325;28;20612;-74
2022/06/05 08:14:56;;;;;;;13.30;12.10;;;21.40;99.90;;;;;;5095839;28;21158;-74
2022/06/05 08:17:26;;;;;;;13.20;12.00;;;21.30;99.90;;;;;;5096266;28;20666;-75
2022/06/05 08:19:53;;;;;;;12.90;11.80;;;21.20;99.90;;;;;;5095999;28;20628;-75
2022/06/05 08:22:21;;;;;;;14.13;12.17;;;21.10;99.90;;;;;;5096339;28;20613;-76
2022/06/05 08:24:48;;;;;;;11.57;10.67;;;21.20;99.90;;;;;;5095340;28;20621;-75
2022/06/05 08:27:24;;;;;;;12.83;11.70;;;21.30;99.90;;;;;;5094787;28;20608;-75
2022/06/05 08:29:55;;;;;;;16.17;11.90;;;21.50;99.90;;;;;;5095592;28;20637;-75
2022/06/05 08:32:23;;;;;;;13.33;11.50;;;21.60;99.90;;;;;;5095014;28;20583;-75
2022/06/05 08:34:50;;;;;;;12.00;11.13;;;22.10;99.90;;;;;;5094506;28;20636;-75
2022/06/05 08:43:16;;;;;;;12.00;11.10;;;22.40;99.90;;;;;;5095219;28;21119;-75
2022/06/05 08:45:58;;;;;;;11.80;10.77;;;22.80;99.90;;;;;;5095898;28;20557;-75
2022/06/05 08:48:38;;;;;;;12.13;10.93;;;23.10;99.90;;;;;;5094853;28;20649;-75
2022/06/05 08:51:20;;;;;;;11.13;10.23;;;23.10;99.90;;;;;;5096589;28;20647;-75
2022/06/05 08:54:10;;;;;;;10.57;9.57;;;23.10;99.90;;;;;;5096137;28;20706;-75
2022/06/05 08:56:41;;;;;;;10.60;9.90;;;23.10;99.90;;;;;;5095584;28;20634;-75
2022/06/05 08:59:38;;;;;;;11.83;10.53;;;22.90;99.90;;;;;;5096022;28;21019;-75
2022/06/05 09:02:13;;;;;;;10.10;9.37;;;22.90;99.90;;;;;;5094553;28;20573;-75
2022/06/05 09:04:44;;;;;;;10.87;9.97;;;23.40;99.90;;;;;;5093107;28;20960;-75
2022/06/05 09:07:16;;;;;;;10.73;9.80;;;23.90;99.90;;;;;;5094075;28;20967;-76
2022/06/05 09:09:45;;;;;;;13.00;9.67;;;23.40;99.90;;;;;;5094289;28;20644;-76
2022/06/05 09:12:32;;;;;;;10.70;9.90;;;23.20;99.90;;;;;;5092880;28;21002;-76
2022/06/05 09:15:16;;;;;;;10.10;9.40;;;23.50;99.90;;;;;;5094397;28;20577;-76
2022/06/05 09:17:52;;;;;;;10.30;9.60;;;23.20;99.90;;;;;;5096115;28;20621;-76
2022/06/05 09:20:41;;;;;;;10.10;9.40;;;22.50;99.90;;;;;;5096271;28;20967;-76
2022/06/05 09:23:34;;;;;;;10.40;9.50;;;22.90;99.90;;;;;;5095308;28;20566;-75
2022/06/05 09:26:34;;;;;;;10.07;9.33;;;23.00;99.90;;;;;;5095158;28;20628;-75
2022/06/05 09:29:25;;;;;;;10.77;9.80;;;22.70;99.90;;;;;;5094688;28;20950;-75
2022/06/05 09:32:23;;;;;;;12.00;11.10;;;23.40;99.90;;;;;;5095013;28;20659;-75
2022/06/05 09:35:15;;;;;;;11.40;10.47;;;23.20;99.90;;;;;;5093265;28;20585;-75
2022/06/05 09:37:59;;;;;;;11.90;10.97;;;23.70;99.90;;;;;;5093631;28;20636;-75
2022/06/05 09:40:55;;;;;;;10.50;9.70;;;23.00;99.90;;;;;;5095710;28;20586;-75
2022/06/05 09:43:34;;;;;;;11.60;10.70;;;23.50;99.90;;;;;;5095850;28;20569;-75
2022/06/05 09:46:08;;;;;;;11.13;10.30;;;23.70;99.90;;;;;;5095627;28;20562;-74
2022/06/05 09:49:04;;;;;;;12.47;11.57;;;23.80;99.90;;;;;;5095423;28;20667;-74
2022/06/05 09:51:30;;;;;;;10.87;10.03;;;23.60;99.90;;;;;;5091426;28;20785;-74
2022/06/05 09:54:15;;;;;;;12.10;11.20;;;23.20;99.90;;;;;;5094281;28;20628;-74
2022/06/05 10:00:13;;;;;;;10.70;9.80;;;23.40;99.90;;;;;;5093416;28;20566;-75
2022/06/05 10:02:39;;;;;;;14.60;13.40;;;23.90;99.90;;;;;;5094972;28;20617;-76
2022/06/05 10:05:40;;;;;;;12.00;11.00;;;23.90;99.90;;;;;;5096836;28;20609;-75
2022/06/05 10:08:19;;;;;;;11.27;10.47;;;24.80;99.90;;;;;;5088359;28;20628;-76
2022/06/05 10:10:47;;;;;;;10.60;9.90;;;25.40;99.90;;;;;;5096184;28;20649;-75
2022/06/05 10:13:20;;;;;;;10.33;9.63;;;24.70;99.90;;;;;;5096212;28;20625;-75
2022/06/05 10:16:10;;;;;;;10.33;9.37;;;24.90;99.90;;;;;;5096924;28;20609;-75
2022/06/05 10:18:54;;;;;;;10.33;9.60;;;24.50;99.90;;;;;;5094840;28;20619;-75
2022/06/05 10:21:24;;;;;;;10.07;9.37;;;24.50;99.90;;;;;;5097369;28;20572;-75
2022/06/05 10:24:08;;;;;;;10.83;10.03;;;24.40;99.90;;;;;;5094797;28;20632;-75
2022/06/05 10:26:38;;;;;;;9.60;8.80;;;24.20;99.90;;;;;;5096303;28;20995;-75
2022/06/05 10:29:22;;;;;;;10.47;9.77;;;24.30;99.90;;;;;;5094522;28;20674;-75
2022/06/05 10:32:21;;;;;;;11.47;10.67;;;24.10;99.90;;;;;;5095688;28;20665;-75
2022/06/05 10:34:59;;;;;;;12.37;11.47;;;24.10;99.90;;;;;;5070549;28;20696;-75
2022/06/05 10:38:06;;;;;;;11.00;10.10;;;24.30;99.90;;;;;;5095849;28;20581;-74
2022/06/05 10:40:51;;;;;;;10.10;9.40;;;24.50;99.90;;;;;;5089674;28;20633;-75
2022/06/05 10:43:29;;;;;;;11.40;10.40;;;25.10;99.90;;;;;;5095622;28;21126;-75
2022/06/05 10:46:18;;;;;;;11.40;10.50;;;24.30;99.90;;;;;;5095727;28;20601;-75
2022/06/05 10:49:20;;;;;;;10.67;9.70;;;24.80;99.90;;;;;;5095031;28;21024;-75
2022/06/05 10:52:32;;;;;;;10.93;9.97;;;24.50;99.90;;;;;;5095821;28;20628;-75
2022/06/05 10:55:19;;;;;;;11.50;10.70;;;24.60;99.90;;;;;;5093295;28;20637;-74
2022/06/05 10:57:54;;;;;;;11.30;9.03;;;24.70;99.90;;;;;;5095147;28;20617;-74
2022/06/05 11:00:59;;;;;;;9.33;8.73;;;24.80;99.90;;;;;;5094270;28;20679;-75
2022/06/05 11:03:35;;;;;;;9.37;8.67;;;25.10;99.90;;;;;;5072800;28;20685;-75
2022/06/05 11:06:27;;;;;;;8.90;8.30;;;24.90;99.90;;;;;;5095341;28;21161;-75
2022/06/05 11:09:25;;;;;;;4.33;3.00;;;24.30;99.90;;;;;;5095446;28;21019;-75
2022/06/05 11:15:24;;;;;;;2.70;2.50;;;22.50;99.90;;;;;;5095374;28;20616;-74
2022/06/05 11:18:09;;;;;;;3.07;2.67;;;21.90;99.90;;;;;;5095892;28;20635;-74
2022/06/05 11:20:36;;;;;;;4.20;2.30;;;22.30;99.90;;;;;;5095218;28;20672;-74
2022/06/05 11:23:18;;;;;;;7.03;2.93;;;22.70;99.90;;;;;;5095082;28;20621;-74
2022/06/05 11:25:53;;;;;;;4.60;2.33;;;23.40;99.90;;;;;;5095640;28;20633;-74
2022/06/05 11:28:55;;;;;;;7.27;2.30;;;23.50;99.90;;;;;;5095397;28;20933;-75
2022/06/05 11:31:37;;;;;;;5.23;2.27;;;23.10;99.90;;;;;;5094750;28;20713;-75
2022/06/05 11:34:18;;;;;;;5.07;2.37;;;23.10;99.90;;;;;;5094747;28;20578;-75
2022/06/05 11:36:56;;;;;;;4.00;2.70;;;23.20;99.90;;;;;;5094691;28;20957;-75
2022/06/05 11:39:45;;;;;;;3.57;2.10;;;22.70;99.90;;;;;;5095216;28;20577;-76
2022/06/05 11:42:34;;;;;;;7.73;2.70;;;22.40;99.90;;;;;;5095895;28;20570;-74
2022/06/05 11:45:25;;;;;;;5.17;2.77;;;22.40;99.90;;;;;;5095197;28;20620;-75
2022/06/05 11:48:28;;;;;;;4.23;2.10;;;22.30;99.90;;;;;;5094169;28;20637;-75
2022/06/05 11:51:09;;;;;;;5.90;2.50;;;22.10;99.90;;;;;;5089077;28;20665;-74
2022/06/05 11:54:22;;;;;;;2.70;2.10;;;22.00;99.90;;;;;;5095299;28;20628;-73
2022/06/05 11:57:21;;;;;;;5.53;2.70;;;22.10;99.90;;;;;;5090816;28;21190;-75
2022/06/05 12:00:07;;;;;;;4.27;2.80;;;21.80;99.90;;;;;;5094606;28;20620;-75
2022/06/05 12:02:53;;;;;;;4.40;2.60;;;21.90;99.90;;;;;;5094971;28;20996;-74
2022/06/05 12:05:42;;;;;;;2.60;2.40;;;22.00;99.90;;;;;;5094598;28;20616;-74
2022/06/05 12:08:21;;;;;;;2.60;2.40;;;22.00;99.90;;;;;;5094114;28;20583;-74
2022/06/05 12:10:56;;;;;;;5.90;2.77;;;22.00;99.90;;;;;;5091937;28;20672;-75
2022/06/05 12:13:23;;;;;;;5.87;2.63;;;21.90;99.90;;;;;;5094365;28;20573;-75
2022/06/05 12:16:10;;;;;;;3.53;3.23;;;21.70;99.90;;;;;;5093949;28;21205;-74
2022/06/05 12:18:54;;;;;;;4.87;3.13;;;21.60;99.90;;;;;;5093074;28;20682;-75
2022/06/05 12:21:33;;;;;;;2.57;2.33;;;21.50;99.90;;;;;;5094064;28;20809;-74
2022/06/05 12:24:29;;;;;;;25.47;4.80;;;21.50;99.90;;;;;;5093143;28;21245;-75
2022/06/05 12:27:16;;;;;;;5.03;3.77;;;21.40;99.90;;;;;;5088333;28;21255;-74
2022/06/05 12:29:56;;;;;;;3.40;3.20;;;21.40;99.90;;;;;;5094350;28;20621;-74
2022/06/05 12:32:38;;;;;;;4.03;3.47;;;21.40;99.90;;;;;;5095071;28;21145;-73
2022/06/05 12:35:23;;;;;;;5.40;3.47;;;22.10;99.90;;;;;;5095156;28;20625;-75
2022/06/05 12:38:33;;;;;;;3.83;3.13;;;23.10;99.90;;;;;;5095014;28;20574;-75
2022/06/05 12:41:16;;;;;;;3.60;3.07;;;23.20;99.90;;;;;;5073993;28;20620;-75
2022/06/05 12:44:18;;;;;;;4.80;3.70;;;23.70;99.90;;;;;;5094169;28;20577;-75
2022/06/05 12:46:58;;;;;;;5.80;3.07;;;23.80;99.90;;;;;;5093618;28;20625;-75
2022/06/05 12:49:45;;;;;;;3.50;3.17;;;24.10;99.90;;;;;;5093409;28;21138;-75
2022/06/05 12:52:43;;;;;;;3.17;2.97;;;23.60;99.90;;;;;;5093373;28;20999;-75
2022/06/05 12:55:27;;;;;;;3.00;2.60;;;24.10;99.90;;;;;;5091646;28;21048;-75
2022/06/05 12:58:05;;;;;;;2.53;2.33;;;25.30;99.90;;;;;;5093284;28;20588;-75
2022/06/05 13:00:40;;;;;;;3.17;2.87;;;25.60;99.90;;;;;;5093869;28;20638;-76
2022/06/05 13:03:15;;;;;;;2.90;2.60;;;25.80;99.90;;;;;;5093864;28;20585;-76
2022/06/05 13:06:23;;;;;;;2.47;2.30;;;24.70;99.90;;;;;;5093490;28;21101;-75
2022/06/05 13:09:03;;;;;;;3.67;2.83;;;24.30;99.90;;;;;;5070194;28;20986;-75
2022/06/05 13:11:43;;;;;;;3.13;2.90;;;25.00;99.90;;;;;;5093310;28;20992;-75
2022/06/05 13:14:21;;;;;;;2.80;2.57;;;26.30;99.90;;;;;;5093582;28;20573;-76
2022/06/05 13:16:56;;;;;;;2.60;2.40;;;27.20;99.90;;;;;;5093740;28;20955;-76
2022/06/05 13:20:00;;;;;;;3.80;2.57;;;26.50;99.90;;;;;;5093384;28;20956;-76
2022/06/05 13:22:44;;;;;;;2.60;2.40;;;25.70;99.90;;;;;;5093459;28;20572;-75
2022/06/05 13:25:22;;;;;;;2.90;2.33;;;25.30;99.90;;;;;;5093302;28;20948;-76
2022/06/05 13:28:07;;;;;;;2.57;2.13;;;25.30;99.90;;;;;;5092910;28;20580;-76
2022/06/05 13:30:55;;;;;;;5.47;2.60;;;25.90;99.90;;;;;;5091671;28;20649;-76
2022/06/05 13:34:12;;;;;;;4.30;2.60;;;26.40;99.90;;;;;;5092474;28;20616;-76
2022/06/05 13:36:48;;;;;;;2.73;1.80;;;25.90;99.90;;;;;;5053995;28;20623;-76
2022/06/05 13:39:28;;;;;;;9.23;2.00;;;26.30;99.90;;;;;;5054778;28;21169;-76